Cambridge, MA

8:53 PM EDT on April 26, 2017 (GMT -0400)
The Larches | | Change Station
Active Advisory: Dense Fog Advisory

Elev 49 ft 42.38 °N, 71.15 °W | Updated 3 minutes ago

Fog
Fog
51.8 °F
Feels Like 51.8 °F
N
0.0
Wind Variable Wind from NNE

Today
High -- | Low -- °F
--% Chance of Precip.
Yesterday
High -- | Low -- °F
Precip. -- in
Pressure 29.82 in
Visibility 0.1 miles
Clouds Overcast 200 ft
Dew Point 50 °F
Humidity 93%
Rainfall 0.67 in
Snow Depth Not available.
5:46 AM 7:38 PM
New Moon, 0% visible
METAR KBOS 262354Z 05009KT 1/8SM R04R/6000VP6000FT FG OVC002 10/10 A2982 RMK AO2 TWR VIS M1/4 RAB15E25 SLP098 P0000 60015 T01000100 10122 20100 53002
Pressure 29.82 in
Visibility 0.1 miles
Clouds Overcast 200 ft
Dew Point 50 °F
Humidity 93%
Rainfall 0.67 in
Snow Depth Not available.
5:46 AM 7:38 PM
New Moon, 0% visible
METAR KBOS 262354Z 05009KT 1/8SM R04R/6000VP6000FT FG OVC002 10/10 A2982 RMK AO2 TWR VIS M1/4 RAB15E25 SLP098 P0000 60015 T01000100 10122 20100 53002

Get Your Daily Forecast Email!

Thanks for signing up!

Be on the lookout for a verification email in your inbox.

You'll start receiving severe weather alerts in your inbox..

×

10-Day Weather Forecast

Almanac

Astronomy

Apr. 26, 2017 Rise Set
Actual Time
Civil Twilight
Nautical Twilight
Astronomical Twilight
Moon
Length of Visible Light
Length of Day
Tomorrow will be .
, % of the Moon is Illuminated

Today's Extremes

State Highs State Lows

Community

WunderPhotos

WunderBlog® & News

Nearby

Air Quality

  Air Quality AQ Index Pollutant
Not available.

Snow Depth

Station Depth Elevation

Earthquake Activity

City Distance Mag. Time & Date
Minimum magnitude displayed is 2.5.

Coastal Water Temperatures

Place Temperature

Stations

Nearby Weather Stations

Station Location Temp. Windchill Dew Point Humidity Wind Precip. Elev Updated Type
                   

Watches & Warnings

Dense Fog Advisory
Issued: 4:20 PM EDT Apr. 26, 2017 – National Weather Service

... Dense fog advisory remains in effect until 9 am EDT Thursday...

* location... interior eastern Massachusetts and Rhode Island,
including Worcester.

* Visibilities... one quarter mile to one-half mile or less at
times.

* Timing... from 6 PM this evening to 9 am Thursday.

* Impacts... hazardous travel due to poor visibility.

Precautionary/preparedness actions...

A dense fog advisory means visibilities will frequently be
reduced to less than one quarter mile, for at least 3 hours. If
driving, slow down, use your headlights, and leave plenty of
distance ahead of you.